Time;durP1;ratioP1;P1;durP2;ratioP2;P2;SDS_P1;SDS_P2;PMS_P1;PMS_P2;Temp;Humidity;BMP_temperature;BMP_pressure;BME280_temperature;BME280_humidity;BME280_pressure;Samples;Min_cycle;Max_cycle;Signal;HPM_P1;HPM_P2
2021/10/30 00:00:34;;;;;;;7.85;4.43;;;13.90;75.80;;;;;;5072329;28;20149;-46
2021/10/30 00:02:59;;;;;;;6.90;4.40;;;13.90;76.00;;;;;;5072126;28;20024;-49
2021/10/30 00:05:25;;;;;;;7.18;4.78;;;13.90;76.20;;;;;;5072156;28;20024;-47
2021/10/30 00:07:51;;;;;;;6.88;3.97;;;13.80;76.40;;;;;;5072831;28;20374;-50
2021/10/30 00:10:17;;;;;;;8.63;4.30;;;13.80;77.10;;;;;;5072220;28;20029;-46
2021/10/30 00:12:43;;;;;;;7.18;4.30;;;13.80;76.90;;;;;;5054770;28;20561;-46
2021/10/30 00:15:11;;;;;;;6.35;4.40;;;13.80;77.00;;;;;;5057649;28;20048;-47
2021/10/30 00:17:37;;;;;;;7.38;4.35;;;13.80;76.90;;;;;;5075798;28;20017;-47
2021/10/30 00:20:04;;;;;;;8.82;4.65;;;14.00;76.10;;;;;;5075749;28;20028;-46
2021/10/30 00:22:29;;;;;;;6.75;4.68;;;14.00;75.50;;;;;;5075467;28;20029;-48
2021/10/30 00:24:56;;;;;;;7.72;4.75;;;13.90;75.20;;;;;;5075400;28;20029;-46
2021/10/30 00:27:22;;;;;;;8.27;4.80;;;14.10;74.20;;;;;;5075334;28;20028;-46
2021/10/30 00:29:48;;;;;;;7.18;4.60;;;13.90;74.10;;;;;;5075810;28;20032;-47
2021/10/30 00:32:14;;;;;;;9.57;4.97;;;14.00;73.40;;;;;;5075363;28;20058;-46
2021/10/30 00:34:39;;;;;;;9.00;5.57;;;14.10;72.40;;;;;;5075294;28;20025;-47
2021/10/30 00:37:05;;;;;;;9.27;5.57;;;14.10;72.20;;;;;;5075353;28;20024;-47
2021/10/30 00:39:31;;;;;;;10.23;4.55;;;14.00;72.70;;;;;;5075481;28;20388;-49
2021/10/30 00:41:57;;;;;;;8.90;4.82;;;14.00;72.10;;;;;;5075998;28;20056;-48
2021/10/30 00:44:23;;;;;;;10.57;6.75;;;14.00;72.20;;;;;;5075123;28;20054;-51
2021/10/30 00:46:51;;;;;;;8.85;4.47;;;14.10;71.50;;;;;;5075118;28;20028;-46
2021/10/30 00:49:18;;;;;;;7.63;4.72;;;14.00;71.60;;;;;;5074963;28;20033;-46
2021/10/30 00:51:47;;;;;;;7.43;4.78;;;13.80;72.00;;;;;;5056978;28;20421;-47
2021/10/30 00:54:14;;;;;;;9.50;5.47;;;13.80;72.00;;;;;;5075330;28;20025;-46
2021/10/30 00:56:42;;;;;;;6.30;4.53;;;13.80;71.30;;;;;;5075209;28;20121;-46
2021/10/30 00:59:12;;;;;;;7.43;5.20;;;13.90;71.30;;;;;;5074699;28;20058;-46
2021/10/30 01:01:39;;;;;;;8.75;5.35;;;13.80;71.10;;;;;;5074879;28;20384;-48
2021/10/30 01:04:05;;;;;;;7.05;5.18;;;13.70;71.30;;;;;;5074545;28;20111;-46
2021/10/30 01:06:33;;;;;;;9.48;4.40;;;13.60;71.60;;;;;;5074362;28;20051;-46
2021/10/30 01:08:59;;;;;;;13.13;5.80;;;13.60;71.70;;;;;;5074522;28;20027;-47
2021/10/30 01:11:25;;;;;;;7.40;5.10;;;13.60;71.50;;;;;;5074251;28;20043;-49
2021/10/30 01:13:52;;;;;;;6.72;5.03;;;13.50;72.00;;;;;;5057053;28;20384;-50
2021/10/30 01:16:21;;;;;;;7.65;4.78;;;13.50;72.00;;;;;;5074579;28;20377;-47
2021/10/30 01:18:48;;;;;;;9.27;5.38;;;13.50;72.10;;;;;;5074127;28;20120;-47
2021/10/30 01:21:22;;;;;;;6.35;5.00;;;13.40;72.10;;;;;;5074484;28;20028;-48
2021/10/30 01:23:48;;;;;;;9.77;5.88;;;13.40;72.00;;;;;;5073556;28;20032;-48
2021/10/30 01:26:14;;;;;;;6.88;4.55;;;13.30;72.30;;;;;;5073837;28;20146;-47
2021/10/30 01:28:40;;;;;;;8.95;4.88;;;13.30;72.70;;;;;;5074104;28;20024;-49
2021/10/30 01:31:06;;;;;;;8.68;5.05;;;13.20;72.70;;;;;;5074235;28;20028;-47
2021/10/30 01:33:32;;;;;;;8.30;5.22;;;13.20;72.40;;;;;;5073987;28;20024;-47
2021/10/30 01:36:06;;;;;;;10.27;5.03;;;13.20;72.40;;;;;;5073973;28;20421;-46
2021/10/30 01:38:31;;;;;;;11.35;5.40;;;13.30;72.30;;;;;;5074455;28;20031;-47
2021/10/30 01:40:57;;;;;;;9.32;5.47;;;13.30;71.90;;;;;;5074013;28;20107;-47
2021/10/30 01:43:23;;;;;;;14.82;8.15;;;13.10;72.40;;;;;;5055975;28;20029;-49
2021/10/30 01:45:48;;;;;;;7.20;5.20;;;13.20;72.20;;;;;;5074133;28;20035;-47
2021/10/30 01:48:14;;;;;;;7.20;4.90;;;13.30;71.50;;;;;;5073853;28;20023;-51
2021/10/30 01:50:41;;;;;;;9.63;5.07;;;13.30;71.60;;;;;;5073909;28;20021;-46
2021/10/30 01:53:08;;;;;;;7.88;4.45;;;13.30;71.50;;;;;;5073784;28;20380;-47
2021/10/30 01:55:37;;;;;;;10.60;5.63;;;13.30;71.50;;;;;;5073616;28;20021;-48
2021/10/30 01:58:03;;;;;;;8.05;4.68;;;13.30;71.60;;;;;;5073633;28;20108;-48
2021/10/30 02:00:30;;;;;;;6.30;4.80;;;13.30;71.40;;;;;;5074095;28;20082;-48
2021/10/30 02:02:56;;;;;;;7.28;4.68;;;13.30;71.50;;;;;;5073840;28;20036;-49
2021/10/30 02:05:22;;;;;;;7.07;4.57;;;13.30;71.50;;;;;;5073734;28;20024;-49
2021/10/30 02:07:48;;;;;;;11.57;5.88;;;13.20;71.90;;;;;;5073321;28;20048;-46
2021/10/30 02:10:15;;;;;;;8.15;4.70;;;13.30;71.80;;;;;;5073660;28;20417;-46
2021/10/30 02:12:42;;;;;;;8.27;5.22;;;13.40;71.00;;;;;;5073877;28;20070;-46
2021/10/30 02:15:09;;;;;;;8.63;4.65;;;13.30;71.10;;;;;;5073333;28;20021;-50
2021/10/30 02:17:35;;;;;;;7.05;4.43;;;13.40;70.80;;;;;;5073339;28;20048;-47
2021/10/30 02:20:01;;;;;;;9.75;4.85;;;13.30;71.10;;;;;;5073338;28;20087;-47
2021/10/30 02:22:27;;;;;;;6.75;4.15;;;13.30;70.90;;;;;;5073740;28;20077;-47
2021/10/30 02:24:53;;;;;;;6.38;4.30;;;13.30;70.90;;;;;;5073552;28;20115;-50
2021/10/30 02:27:19;;;;;;;9.68;5.05;;;13.30;71.00;;;;;;5073902;28;20384;-47
2021/10/30 02:29:44;;;;;;;5.57;4.25;;;13.30;71.30;;;;;;5073748;28;20025;-46
2021/10/30 02:32:10;;;;;;;7.75;5.10;;;13.20;71.80;;;;;;5073918;28;20051;-47
2021/10/30 02:34:36;;;;;;;8.73;4.43;;;13.10;71.80;;;;;;5073691;28;20031;-46
2021/10/30 02:37:02;;;;;;;10.43;5.03;;;13.20;71.90;;;;;;5073050;28;20021;-49
2021/10/30 02:39:28;;;;;;;8.27;4.72;;;13.20;72.10;;;;;;5073352;28;20020;-46
2021/10/30 02:41:54;;;;;;;6.63;4.22;;;13.20;71.80;;;;;;5073644;28;20020;-46
2021/10/30 02:44:19;;;;;;;7.85;4.50;;;13.10;72.20;;;;;;5073493;28;20021;-46
2021/10/30 02:46:45;;;;;;;5.57;4.05;;;13.10;72.40;;;;;;5055017;28;20340;-45
2021/10/30 02:49:10;;;;;;;8.48;4.28;;;13.20;71.90;;;;;;5072923;28;20021;-47
2021/10/30 02:51:36;;;;;;;5.88;3.92;;;13.30;71.90;;;;;;5073154;28;20112;-45
2021/10/30 02:54:02;;;;;;;8.13;4.38;;;13.20;72.00;;;;;;5073368;28;20440;-47
2021/10/30 02:56:28;;;;;;;8.50;4.25;;;13.10;72.10;;;;;;5055334;28;20021;-49
2021/10/30 02:58:54;;;;;;;6.47;4.25;;;13.20;72.00;;;;;;5073079;28;20028;-51
2021/10/30 03:01:20;;;;;;;5.28;3.83;;;13.20;72.10;;;;;;5072818;28;20025;-46
2021/10/30 03:03:45;;;;;;;5.20;4.00;;;13.20;72.10;;;;;;5072888;28;20060;-46
2021/10/30 03:06:11;;;;;;;9.10;5.10;;;13.20;72.00;;;;;;5072669;28;20098;-47
2021/10/30 03:08:37;;;;;;;9.38;4.00;;;13.10;72.00;;;;;;5072956;28;20040;-49
2021/10/30 03:11:03;;;;;;;8.75;3.88;;;13.20;71.80;;;;;;5072925;28;20020;-50
2021/10/30 03:13:29;;;;;;;6.85;3.45;;;13.30;71.60;;;;;;5073200;28;20024;-46
2021/10/30 03:15:55;;;;;;;8.18;3.95;;;13.30;71.30;;;;;;5054643;28;20075;-46
2021/10/30 03:18:21;;;;;;;8.15;3.67;;;13.40;70.80;;;;;;5072573;28;20017;-48
2021/10/30 03:20:48;;;;;;;4.68;3.28;;;13.30;70.90;;;;;;5072670;28;20032;-46
2021/10/30 03:23:14;;;;;;;5.70;4.20;;;13.30;71.00;;;;;;5072925;28;20385;-46
2021/10/30 03:25:39;;;;;;;6.13;4.13;;;13.40;70.40;;;;;;5072532;28;20036;-46
2021/10/30 03:28:05;;;;;;;9.20;3.97;;;13.30;70.50;;;;;;5072691;28;20028;-45
2021/10/30 03:30:31;;;;;;;4.40;3.28;;;13.30;70.90;;;;;;5072582;28;20472;-49
2021/10/30 03:32:57;;;;;;;7.43;3.90;;;13.30;70.50;;;;;;5073598;28;20200;-46
2021/10/30 03:35:23;;;;;;;11.48;3.95;;;13.30;70.40;;;;;;5072687;28;20024;-46
2021/10/30 03:37:48;;;;;;;7.72;4.13;;;13.30;70.50;;;;;;5054498;28;20028;-49
2021/10/30 03:40:14;;;;;;;5.40;3.78;;;13.30;70.40;;;;;;5072981;28;20480;-47
2021/10/30 03:42:40;;;;;;;5.97;4.32;;;13.30;70.50;;;;;;5072882;28;20105;-47
2021/10/30 03:45:07;;;;;;;11.45;3.92;;;13.30;70.50;;;;;;5072508;28;20486;-47
2021/10/30 03:47:33;;;;;;;6.47;3.35;;;13.40;69.90;;;;;;5072835;28;20475;-47
2021/10/30 03:49:59;;;;;;;9.98;3.80;;;13.40;69.80;;;;;;5058188;28;20453;-47
2021/10/30 03:52:25;;;;;;;7.43;3.63;;;13.40;70.10;;;;;;5076158;28;20017;-48
2021/10/30 03:54:53;;;;;;;6.20;3.50;;;13.30;70.20;;;;;;5076030;28;20024;-48
2021/10/30 03:57:19;;;;;;;8.98;3.78;;;13.40;69.90;;;;;;5076448;28;20127;-50
2021/10/30 03:59:45;;;;;;;5.20;3.83;;;13.50;69.80;;;;;;5076034;28;20488;-50
2021/10/30 04:02:10;;;;;;;4.95;2.92;;;13.50;69.60;;;;;;5076581;28;20062;-47
2021/10/30 04:04:36;;;;;;;6.05;3.72;;;13.50;69.70;;;;;;5076143;28;20108;-46
2021/10/30 04:07:02;;;;;;;9.32;3.75;;;13.40;69.90;;;;;;5075784;28;20471;-46
2021/10/30 04:09:28;;;;;;;5.45;3.53;;;13.50;69.80;;;;;;5076123;28;20035;-47
2021/10/30 04:11:53;;;;;;;5.68;2.92;;;13.50;69.70;;;;;;5075883;28;20477;-47
2021/10/30 04:14:19;;;;;;;6.35;3.83;;;13.50;69.80;;;;;;5076115;28;20024;-46
2021/10/30 04:16:45;;;;;;;8.65;3.92;;;13.50;69.90;;;;;;5076065;28;20611;-47
2021/10/30 04:19:13;;;;;;;3.97;3.53;;;13.50;69.70;;;;;;5075633;28;20054;-50
2021/10/30 04:21:39;;;;;;;5.68;3.72;;;13.60;69.50;;;;;;5057734;28;20021;-46
2021/10/30 04:24:05;;;;;;;6.43;3.70;;;13.80;68.90;;;;;;5075534;28;20025;-46
2021/10/30 04:26:32;;;;;;;5.90;3.58;;;13.80;68.60;;;;;;5075332;28;20514;-49
2021/10/30 04:28:58;;;;;;;4.88;2.97;;;13.70;69.20;;;;;;5075719;28;20033;-47
2021/10/30 04:31:26;;;;;;;9.05;4.22;;;13.70;69.40;;;;;;5075650;28;20443;-46
2021/10/30 04:33:54;;;;;;;6.57;3.75;;;13.70;69.70;;;;;;5057473;28;20104;-48
2021/10/30 04:36:23;;;;;;;6.80;3.53;;;13.80;69.00;;;;;;5075466;28;20096;-48
2021/10/30 04:38:49;;;;;;;6.63;3.20;;;13.80;69.20;;;;;;5075209;28;20016;-47
2021/10/30 04:41:15;;;;;;;7.22;3.35;;;13.80;69.00;;;;;;5075436;28;20472;-49
2021/10/30 04:43:41;;;;;;;5.85;3.20;;;13.80;69.20;;;;;;5075834;28;20023;-47
2021/10/30 04:46:08;;;;;;;4.40;3.33;;;13.80;68.60;;;;;;5075216;28;20036;-49
2021/10/30 04:48:35;;;;;;;6.05;3.80;;;13.80;69.20;;;;;;5075434;28;20028;-47
2021/10/30 04:51:01;;;;;;;5.70;3.53;;;13.80;69.60;;;;;;5057158;28;20098;-47
2021/10/30 04:53:27;;;;;;;5.85;3.72;;;13.80;70.20;;;;;;5075358;28;20402;-47
2021/10/30 04:55:52;;;;;;;6.28;3.58;;;13.70;70.60;;;;;;5075239;28;20027;-51
2021/10/30 04:58:18;;;;;;;6.65;3.65;;;13.60;71.40;;;;;;5075000;28;20020;-47
2021/10/30 05:00:44;;;;;;;7.75;3.75;;;13.60;72.50;;;;;;5075066;28;20028;-47
2021/10/30 05:03:10;;;;;;;6.38;3.85;;;13.50;72.90;;;;;;5075301;28;20399;-47
2021/10/30 05:05:35;;;;;;;9.18;5.32;;;13.50;73.30;;;;;;5074948;28;20377;-51
2021/10/30 05:08:01;;;;;;;5.72;4.22;;;13.30;74.80;;;;;;5075107;28;20524;-47
2021/10/30 05:10:26;;;;;;;6.20;3.58;;;13.30;74.40;;;;;;5075048;28;20104;-48
2021/10/30 05:12:52;;;;;;;6.22;4.03;;;13.30;75.00;;;;;;5074933;28;20099;-46
2021/10/30 05:15:18;;;;;;;9.48;5.05;;;13.20;76.10;;;;;;5074603;28;20025;-48
2021/10/30 05:17:43;;;;;;;9.70;4.43;;;13.10;76.30;;;;;;5074818;28;20021;-47
2021/10/30 05:20:10;;;;;;;9.68;4.18;;;13.10;76.60;;;;;;5074794;28;20468;-48
2021/10/30 05:22:36;;;;;;;6.40;4.68;;;13.10;76.20;;;;;;5074535;28;20542;-48
2021/10/30 05:25:01;;;;;;;11.05;4.72;;;13.20;76.60;;;;;;5074703;28;20024;-48
2021/10/30 05:27:27;;;;;;;8.93;4.45;;;13.00;77.00;;;;;;5074482;28;20135;-51
2021/10/30 05:29:53;;;;;;;7.75;4.57;;;12.90;77.90;;;;;;5074360;28;20464;-48
2021/10/30 05:32:19;;;;;;;8.15;4.55;;;12.80;78.50;;;;;;5074272;28;20025;-47
2021/10/30 05:34:44;;;;;;;10.20;4.97;;;12.80;78.80;;;;;;5074211;28;20032;-47
2021/10/30 05:37:10;;;;;;;8.48;5.00;;;12.80;78.80;;;;;;5074233;28;20479;-49
2021/10/30 05:39:36;;;;;;;7.47;4.47;;;12.80;79.70;;;;;;5074421;28;20138;-48
2021/10/30 05:42:07;;;;;;;6.88;5.10;;;12.80;79.60;;;;;;5074432;28;20036;-47
2021/10/30 05:44:33;;;;;;;7.57;4.13;;;12.60;80.50;;;;;;5074153;28;20103;-49
2021/10/30 05:46:59;;;;;;;9.20;5.07;;;12.80;79.60;;;;;;5074260;28;20432;-47
2021/10/30 05:49:26;;;;;;;4.75;4.07;;;12.60;81.20;;;;;;5074464;28;20048;-51
2021/10/30 05:51:52;;;;;;;5.45;4.13;;;12.50;81.40;;;;;;5074014;28;20032;-49
2021/10/30 05:54:18;;;;;;;9.05;4.05;;;12.50;81.30;;;;;;5074152;28;20025;-49
2021/10/30 05:56:43;;;;;;;8.25;4.57;;;12.50;81.50;;;;;;5074167;28;20107;-49
2021/10/30 05:59:09;;;;;;;12.20;5.82;;;12.50;81.20;;;;;;5074087;28;20104;-48
2021/10/30 06:01:35;;;;;;;9.73;4.60;;;12.50;81.60;;;;;;5073829;28;20028;-48
2021/10/30 06:04:00;;;;;;;8.45;5.25;;;12.50;81.80;;;;;;5055832;28;20025;-49
2021/10/30 06:06:26;;;;;;;6.55;4.43;;;12.50;81.70;;;;;;5073597;28;20052;-49
2021/10/30 06:08:52;;;;;;;8.43;4.82;;;12.50;82.10;;;;;;5073938;28;20029;-48
2021/10/30 06:11:17;;;;;;;6.18;5.18;;;12.40;82.40;;;;;;5054551;28;20112;-48
2021/10/30 06:13:43;;;;;;;9.65;3.55;;;12.50;82.30;;;;;;5073583;28;20029;-47
2021/10/30 06:16:08;;;;;;;8.68;4.32;;;12.50;82.40;;;;;;5073590;28;20020;-46
2021/10/30 06:18:34;;;;;;;8.07;4.10;;;12.60;82.40;;;;;;5073184;28;20029;-47
2021/10/30 06:21:00;;;;;;;7.55;4.47;;;12.60;82.20;;;;;;5073262;28;20031;-46
2021/10/30 06:23:25;;;;;;;7.97;4.40;;;12.60;82.50;;;;;;5073652;28;20034;-47
2021/10/30 06:25:51;;;;;;;7.90;4.32;;;12.50;82.80;;;;;;5073628;28;20032;-46
2021/10/30 06:28:17;;;;;;;6.80;4.70;;;12.50;83.20;;;;;;5073846;28;20029;-51
2021/10/30 06:30:43;;;;;;;6.30;4.72;;;12.50;83.10;;;;;;5073209;28;20032;-49
2021/10/30 06:33:08;;;;;;;13.90;5.45;;;12.40;83.60;;;;;;5073194;28;20099;-48
2021/10/30 06:35:34;;;;;;;8.25;5.25;;;12.40;83.70;;;;;;5055256;28;20093;-48
2021/10/30 06:38:00;;;;;;;6.72;5.43;;;12.50;84.00;;;;;;5073365;28;20484;-48
2021/10/30 06:40:26;;;;;;;7.22;4.53;;;12.40;84.10;;;;;;5073194;28;20067;-49
2021/10/30 06:42:52;;;;;;;6.90;4.65;;;12.50;84.40;;;;;;5055252;28;20064;-47
2021/10/30 06:45:18;;;;;;;7.22;4.70;;;12.40;84.50;;;;;;5073051;28;20162;-47
2021/10/30 06:47:43;;;;;;;8.88;4.72;;;12.40;84.60;;;;;;5072924;28;20020;-46
2021/10/30 06:50:19;;;;;;;7.40;4.97;;;12.40;85.00;;;;;;5073239;28;20434;-47
2021/10/30 06:52:45;;;;;;;7.25;4.90;;;12.50;84.10;;;;;;5073586;28;20052;-47
2021/10/30 06:55:11;;;;;;;10.18;4.45;;;12.60;83.50;;;;;;5072974;28;20024;-51
2021/10/30 06:57:37;;;;;;;6.07;4.47;;;12.50;84.00;;;;;;5072913;28;20028;-50
2021/10/30 07:00:06;;;;;;;5.53;4.45;;;12.40;84.40;;;;;;5072527;28;20112;-47
2021/10/30 07:02:32;;;;;;;7.22;4.68;;;12.40;84.60;;;;;;5072466;28;20032;-48
2021/10/30 07:04:59;;;;;;;7.40;4.78;;;12.40;84.70;;;;;;5072654;28;20111;-48
2021/10/30 07:07:25;;;;;;;6.47;4.28;;;12.40;84.40;;;;;;5072864;28;20052;-49
2021/10/30 07:09:54;;;;;;;9.23;4.93;;;12.50;84.00;;;;;;5072758;28;20441;-48
2021/10/30 07:12:20;;;;;;;12.57;5.40;;;12.50;84.00;;;;;;5073028;28;20020;-51
2021/10/30 07:14:46;;;;;;;12.23;6.13;;;12.40;84.40;;;;;;5054393;28;20120;-49
2021/10/30 07:17:12;;;;;;;6.93;4.18;;;12.40;84.20;;;;;;5072772;28;20378;-50
2021/10/30 07:19:37;;;;;;;6.22;4.50;;;12.40;84.40;;;;;;5072596;28;20029;-50
2021/10/30 07:22:03;;;;;;;9.82;4.88;;;12.50;83.60;;;;;;5073977;28;20029;-50
2021/10/30 07:24:29;;;;;;;5.70;4.00;;;12.50;83.50;;;;;;5058716;28;20033;-50
2021/10/30 07:26:54;;;;;;;7.50;4.55;;;12.50;83.20;;;;;;5076667;28;20031;-47
2021/10/30 07:29:20;;;;;;;7.70;4.10;;;12.50;82.90;;;;;;5076362;28;20389;-52
2021/10/30 07:31:45;;;;;;;8.23;4.70;;;12.40;83.60;;;;;;5076749;28;20109;-49
2021/10/30 07:34:11;;;;;;;10.30;5.47;;;12.40;83.50;;;;;;5076146;28;20483;-49
2021/10/30 07:36:36;;;;;;;8.70;5.20;;;12.40;83.80;;;;;;5076238;28;20093;-50
2021/10/30 07:39:03;;;;;;;8.68;4.38;;;12.50;82.80;;;;;;5076365;28;20021;-49
2021/10/30 07:41:29;;;;;;;7.68;4.72;;;12.60;82.60;;;;;;5076728;28;20380;-50
2021/10/30 07:43:55;;;;;;;9.40;4.40;;;12.70;82.30;;;;;;5076189;28;20028;-37
2021/10/30 07:46:23;;;;;;;9.40;4.80;;;12.70;81.80;;;;;;5076328;28;20469;-37
2021/10/30 07:48:51;;;;;;;8.60;4.63;;;12.80;81.50;;;;;;5076292;28;20104;-37
2021/10/30 07:51:17;;;;;;;9.05;4.30;;;12.80;81.60;;;;;;5076029;28;20410;-37
2021/10/30 07:53:43;;;;;;;7.80;4.40;;;12.70;81.60;;;;;;5075685;28;20021;-37
2021/10/30 07:56:09;;;;;;;8.10;5.28;;;12.70;81.80;;;;;;5076048;28;20033;-37
2021/10/30 07:58:35;;;;;;;9.18;4.65;;;12.70;81.70;;;;;;5075755;28;20101;-37
2021/10/30 08:01:00;;;;;;;8.77;5.57;;;12.70;81.30;;;;;;5075976;28;20024;-37
2021/10/30 08:03:26;;;;;;;8.75;4.60;;;12.80;81.00;;;;;;5075779;28;20039;-37
2021/10/30 08:05:51;;;;;;;6.70;3.90;;;12.80;80.60;;;;;;5075596;28;20065;-37
2021/10/30 08:08:17;;;;;;;5.78;4.07;;;12.90;80.50;;;;;;5075558;28;20024;-37
2021/10/30 08:10:43;;;;;;;6.43;3.95;;;12.90;80.20;;;;;;5057377;28;20025;-36
2021/10/30 08:13:10;;;;;;;7.88;4.85;;;13.00;79.90;;;;;;5057029;28;20479;-38
2021/10/30 08:15:36;;;;;;;8.45;4.60;;;13.00;79.80;;;;;;5075460;28;20460;-37
2021/10/30 08:18:01;;;;;;;10.93;6.18;;;13.00;80.30;;;;;;5075205;28;20021;-41
2021/10/30 08:20:27;;;;;;;11.82;6.57;;;12.90;80.50;;;;;;5075347;28;20028;-37
2021/10/30 08:22:53;;;;;;;8.77;5.43;;;13.10;79.90;;;;;;5075369;28;20021;-37
2021/10/30 08:25:19;;;;;;;7.05;4.78;;;13.10;79.60;;;;;;5075287;28;20024;-37
2021/10/30 08:27:45;;;;;;;7.70;4.35;;;13.10;79.40;;;;;;5075264;28;20077;-37
2021/10/30 08:30:11;;;;;;;10.40;6.35;;;13.30;79.20;;;;;;5074917;28;20207;-37
2021/10/30 08:32:37;;;;;;;7.38;4.25;;;13.30;78.80;;;;;;5057145;28;20028;-37
2021/10/30 08:35:03;;;;;;;10.52;4.78;;;13.10;79.30;;;;;;5074746;28;20329;-37
2021/10/30 08:37:29;;;;;;;8.20;4.70;;;13.30;78.90;;;;;;5075080;28;20523;-37
2021/10/30 08:40:02;;;;;;;9.27;4.22;;;13.30;78.60;;;;;;5075436;28;20028;-38
2021/10/30 08:42:30;;;;;;;8.25;4.00;;;13.30;78.70;;;;;;5075066;28;20029;-37
2021/10/30 08:44:56;;;;;;;5.68;4.28;;;13.30;78.10;;;;;;5075063;28;20023;-37
2021/10/30 08:47:22;;;;;;;7.03;3.72;;;13.30;78.60;;;;;;5074845;28;20028;-37
2021/10/30 08:49:48;;;;;;;6.85;4.28;;;13.30;78.20;;;;;;5074938;28;20024;-37
2021/10/30 08:52:14;;;;;;;9.77;4.40;;;13.40;77.90;;;;;;5074792;28;20078;-37
2021/10/30 08:54:39;;;;;;;7.15;3.60;;;13.30;78.10;;;;;;5074911;28;20031;-38
2021/10/30 08:57:05;;;;;;;11.70;4.28;;;13.30;78.30;;;;;;5056776;28;20116;-39
2021/10/30 08:59:43;;;;;;;8.18;4.32;;;13.40;78.40;;;;;;5074815;28;20052;-37
2021/10/30 09:02:27;;;;;;;7.88;4.43;;;13.30;78.20;;;;;;5074773;28;20028;-38
2021/10/30 09:05:12;;;;;;;7.78;4.35;;;13.60;77.50;;;;;;5074658;28;20108;-37
2021/10/30 09:07:38;;;;;;;7.20;3.55;;;13.50;78.40;;;;;;5074420;28;20049;-38
2021/10/30 09:10:16;;;;;;;7.82;4.50;;;13.60;77.20;;;;;;5074548;28;20055;-37
2021/10/30 09:12:56;;;;;;;5.90;3.50;;;13.80;77.10;;;;;;5074255;28;20432;-38
2021/10/30 09:15:41;;;;;;;5.65;3.17;;;13.80;76.60;;;;;;5074255;28;20027;-37
2021/10/30 09:18:31;;;;;;;6.13;3.55;;;13.70;77.30;;;;;;5074210;28;20024;-39
2021/10/30 09:21:13;;;;;;;7.43;3.75;;;13.80;77.30;;;;;;5074252;28;20033;-39
2021/10/30 09:23:51;;;;;;;4.93;3.58;;;13.80;77.60;;;;;;5074697;28;20024;-38
2021/10/30 09:26:23;;;;;;;3.90;2.72;;;13.80;77.20;;;;;;5057081;28;20433;-38
2021/10/30 09:28:57;;;;;;;5.10;2.40;;;14.00;76.80;;;;;;5074102;28;20020;-37
2021/10/30 09:31:23;;;;;;;5.25;3.28;;;14.00;76.60;;;;;;5073984;28;20042;-37
2021/10/30 09:33:53;;;;;;;5.40;2.80;;;14.00;76.60;;;;;;5055914;28;20396;-37
2021/10/30 09:36:19;;;;;;;5.60;3.03;;;13.80;77.60;;;;;;5074342;28;20032;-37
2021/10/30 09:38:51;;;;;;;4.53;3.00;;;13.80;77.60;;;;;;5073691;28;20024;-37
2021/10/30 09:41:30;;;;;;;5.72;3.15;;;13.80;77.60;;;;;;5073870;28;20452;-38
2021/10/30 09:44:00;;;;;;;6.68;3.10;;;13.80;77.90;;;;;;5055732;28;20427;-38
2021/10/30 09:46:31;;;;;;;4.18;2.90;;;13.90;77.90;;;;;;5072902;28;20043;-37
2021/10/30 09:49:15;;;;;;;4.80;2.83;;;13.80;78.00;;;;;;5073404;28;20025;-37
2021/10/30 09:51:48;;;;;;;4.50;2.88;;;13.80;78.30;;;;;;5073888;28;20024;-37
2021/10/30 09:54:34;;;;;;;6.13;3.30;;;13.80;78.70;;;;;;5075712;28;20085;-48
2021/10/30 09:57:01;;;;;;;4.55;2.85;;;13.80;78.30;;;;;;5073526;28;20021;-48
2021/10/30 09:59:30;;;;;;;4.10;3.13;;;13.90;77.70;;;;;;5055760;28;20049;-48
2021/10/30 10:01:56;;;;;;;3.63;2.78;;;14.00;77.50;;;;;;5073283;28;20047;-47
2021/10/30 10:04:24;;;;;;;4.93;3.10;;;14.00;78.10;;;;;;5054835;28;20207;-48
2021/10/30 10:07:00;;;;;;;3.80;3.00;;;13.90;77.70;;;;;;5090878;27;20409;-48
2021/10/30 10:09:26;;;;;;;4.90;3.05;;;14.00;77.90;;;;;;5090510;28;20087;-50
2021/10/30 10:11:52;;;;;;;3.60;2.40;;;14.10;77.00;;;;;;5090021;28;20116;-51
2021/10/30 10:14:20;;;;;;;5.68;2.70;;;14.10;77.60;;;;;;5089977;28;20078;-47
2021/10/30 10:16:48;;;;;;;3.45;2.72;;;14.20;76.60;;;;;;5090186;28;20537;-50
2021/10/30 10:19:15;;;;;;;5.90;2.88;;;14.30;76.40;;;;;;5089792;28;20111;-49
2021/10/30 10:21:42;;;;;;;4.63;2.90;;;14.30;76.40;;;;;;5089646;28;20024;-49
2021/10/30 10:24:14;;;;;;;9.05;3.30;;;14.20;75.80;;;;;;5088452;28;20044;-47
2021/10/30 10:26:48;;;;;;;6.03;3.15;;;14.30;74.70;;;;;;5090002;28;20066;-47
2021/10/30 10:29:41;;;;;;;7.07;3.63;;;14.30;75.20;;;;;;5089907;28;20020;-47
2021/10/30 10:32:22;;;;;;;2.88;2.20;;;14.40;74.70;;;;;;5090002;28;20097;-48
2021/10/30 10:34:49;;;;;;;10.73;3.25;;;14.20;74.90;;;;;;5088512;28;20059;-48
2021/10/30 10:37:15;;;;;;;3.65;3.05;;;14.30;74.50;;;;;;5089307;28;20029;-48
2021/10/30 10:39:49;;;;;;;4.93;2.92;;;14.30;73.70;;;;;;5089730;28;20028;-47
2021/10/30 10:42:36;;;;;;;6.10;2.78;;;14.30;73.60;;;;;;5088052;28;20031;-49
2021/10/30 10:45:13;;;;;;;6.03;3.03;;;14.30;73.90;;;;;;5089040;28;20468;-49
2021/10/30 10:47:39;;;;;;;3.53;2.72;;;14.30;73.60;;;;;;5089366;28;20051;-51
2021/10/30 10:50:20;;;;;;;8.82;3.13;;;14.40;73.60;;;;;;5089532;28;20044;-47
2021/10/30 10:53:08;;;;;;;3.92;2.58;;;14.40;73.10;;;;;;5089438;28;20051;-48
2021/10/30 10:55:44;;;;;;;4.65;3.22;;;14.30;74.20;;;;;;5090303;28;20103;-50
2021/10/30 10:58:12;;;;;;;5.50;3.13;;;14.30;73.70;;;;;;5089045;28;20031;-48
2021/10/30 11:00:58;;;;;;;4.90;3.05;;;14.30;74.10;;;;;;5089397;28;20051;-49
2021/10/30 11:03:31;;;;;;;4.20;2.97;;;14.10;74.70;;;;;;5089520;28;20032;-48
2021/10/30 11:05:58;;;;;;;4.53;3.20;;;14.20;74.10;;;;;;5091271;28;20040;-49
2021/10/30 11:08:26;;;;;;;6.07;3.67;;;14.20;74.60;;;;;;5089547;28;20056;-37
2021/10/30 11:11:10;;;;;;;7.22;3.75;;;14.10;74.10;;;;;;5087566;28;20062;-38
2021/10/30 11:13:36;;;;;;;3.08;2.58;;;14.20;73.70;;;;;;5088620;28;20042;-38
2021/10/30 11:16:04;;;;;;;7.65;4.45;;;14.10;73.60;;;;;;5087909;28;20103;-37
2021/10/30 11:18:34;;;;;;;4.70;2.90;;;14.20;73.40;;;;;;5073375;28;20066;-38
2021/10/30 11:21:14;;;;;;;5.88;3.03;;;14.10;73.80;;;;;;5074175;28;20051;-37
2021/10/30 11:23:46;;;;;;;4.18;2.55;;;14.20;73.90;;;;;;5073476;28;20024;-37
2021/10/30 11:26:23;;;;;;;6.03;2.58;;;14.20;73.70;;;;;;5073091;28;20036;-36
2021/10/30 11:29:10;;;;;;;5.15;3.70;;;14.00;73.70;;;;;;5074864;28;20028;-36
2021/10/30 11:31:36;;;;;;;6.28;3.40;;;14.00;74.30;;;;;;5074442;28;20043;-37
2021/10/30 11:34:10;;;;;;;6.75;3.58;;;13.90;74.30;;;;;;5074899;28;20029;-38
2021/10/30 11:36:38;;;;;;;7.03;3.38;;;13.90;74.50;;;;;;5075111;28;20024;-37
2021/10/30 11:39:06;;;;;;;4.53;3.38;;;13.80;75.30;;;;;;5075117;28;20032;-37
2021/10/30 11:41:34;;;;;;;5.88;4.07;;;13.80;75.60;;;;;;5073621;28;20028;-36
2021/10/30 11:44:11;;;;;;;7.38;3.63;;;13.80;75.10;;;;;;5074973;28;20149;-37
2021/10/30 11:46:50;;;;;;;10.02;4.47;;;13.80;76.30;;;;;;5074990;28;20063;-39
2021/10/30 11:49:30;;;;;;;3.92;2.72;;;13.80;76.10;;;;;;5074528;28;20024;-37
2021/10/30 11:52:01;;;;;;;4.63;2.92;;;13.90;75.50;;;;;;5073582;28;20108;-37
2021/10/30 11:54:27;;;;;;;5.10;2.80;;;13.80;75.50;;;;;;5075145;28;20043;-37
2021/10/30 11:56:53;;;;;;;7.85;4.43;;;13.70;75.70;;;;;;5072915;28;20056;-37
2021/10/30 11:59:19;;;;;;;7.03;3.33;;;13.70;76.50;;;;;;5074350;28;20158;-36
2021/10/30 12:01:47;;;;;;;6.55;3.70;;;13.70;75.80;;;;;;5075749;28;20055;-36
2021/10/30 12:04:21;;;;;;;3.55;3.10;;;13.80;75.80;;;;;;5074734;28;20020;-36
2021/10/30 12:06:59;;;;;;;7.68;4.53;;;13.70;76.20;;;;;;5072643;28;20041;-37
2021/10/30 12:09:29;;;;;;;6.43;3.67;;;13.70;76.10;;;;;;5072420;28;20481;-38
2021/10/30 12:12:06;;;;;;;5.70;3.53;;;13.70;75.90;;;;;;5073704;28;20051;-38
2021/10/30 12:14:34;;;;;;;7.50;4.20;;;13.70;75.90;;;;;;5073331;28;20448;-37
2021/10/30 12:17:05;;;;;;;9.68;3.40;;;13.70;75.70;;;;;;5073783;28;20020;-37
2021/10/30 12:19:34;;;;;;;7.72;4.07;;;13.50;76.60;;;;;;5071894;28;20024;-37
2021/10/30 12:22:19;;;;;;;5.40;3.63;;;13.50;76.20;;;;;;5071421;28;20111;-37
2021/10/30 12:24:45;;;;;;;10.52;3.88;;;13.60;76.20;;;;;;5073448;28;20028;-37
2021/10/30 12:27:13;;;;;;;11.15;3.50;;;13.70;75.30;;;;;;5072480;28;20516;-37
2021/10/30 12:29:41;;;;;;;5.80;4.25;;;13.60;75.80;;;;;;5072417;28;20032;-37
2021/10/30 12:32:10;;;;;;;10.35;3.65;;;13.50;76.30;;;;;;5071511;28;20017;-39
2021/10/30 12:34:40;;;;;;;7.88;4.85;;;13.50;76.60;;;;;;5073457;28;20094;-42
2021/10/30 12:37:08;;;;;;;7.38;3.90;;;13.70;75.70;;;;;;5071796;28;20021;-38
2021/10/30 12:39:34;;;;;;;6.82;3.38;;;13.60;75.70;;;;;;5073432;28;20029;-37
2021/10/30 12:42:06;;;;;;;5.28;3.47;;;13.60;76.20;;;;;;5072902;28;20052;-37
2021/10/30 12:44:36;;;;;;;4.30;2.60;;;13.70;75.10;;;;;;5073329;28;20531;-37
2021/10/30 12:47:14;;;;;;;4.97;3.33;;;13.70;75.50;;;;;;5073348;28;20116;-37
2021/10/30 12:49:43;;;;;;;5.97;3.80;;;13.80;75.60;;;;;;5071878;28;20012;-37